Time;durP1;ratioP1;P1;durP2;ratioP2;P2;SDS_P1;SDS_P2;PMS_P1;PMS_P2;Temp;Humidity;BMP_temperature;BMP_pressure;BME280_temperature;BME280_humidity;BME280_pressure;Samples;Min_cycle;Max_cycle;Signal;HPM_P1;HPM_P2
2023/03/01 00:02:06;;;;;;;18.30;13.25;;;1.80;99.90;;;;;;5086328;28;20036;-87
2023/03/01 00:04:31;;;;;;;19.27;13.02;;;1.60;99.90;;;;;;5087275;28;20035;-87
2023/03/01 00:06:57;;;;;;;17.42;12.68;;;1.10;99.90;;;;;;5085769;27;20881;-87
2023/03/01 00:09:23;;;;;;;19.92;13.52;;;0.80;99.90;;;;;;5107005;27;20073;-87
2023/03/01 00:11:49;;;;;;;18.33;13.30;;;0.10;99.90;;;;;;5090603;27;20066;-87
2023/03/01 00:14:16;;;;;;;18.58;13.80;;;1.80;99.90;;;;;;5088656;27;20104;-88
2023/03/01 00:16:43;;;;;;;20.17;14.13;;;0.10;99.90;;;;;;5089277;27;20062;-86
2023/03/01 00:19:17;;;;;;;20.45;13.27;;;1.10;99.90;;;;;;5103010;27;20524;-88
2023/03/01 00:21:43;;;;;;;20.50;14.63;;;0.00;99.90;;;;;;5102815;28;20051;-86
2023/03/01 00:24:10;;;;;;;19.63;14.45;;;0.00;99.90;;;;;;5069183;28;20036;-86
2023/03/01 00:26:36;;;;;;;23.38;15.00;;;-0.10;99.90;;;;;;5085877;28;20127;-86
2023/03/01 00:29:02;;;;;;;21.63;14.82;;;-0.10;99.90;;;;;;5086493;28;20058;-86
2023/03/01 00:31:31;;;;;;;19.75;14.73;;;-0.10;99.90;;;;;;5067849;28;20465;-86
2023/03/01 00:33:59;;;;;;;20.77;15.05;;;1.50;99.90;;;;;;5086560;28;20399;-86
2023/03/01 00:36:30;;;;;;;21.40;14.48;;;-0.20;99.90;;;;;;5119397;28;20043;-86
2023/03/01 00:38:56;;;;;;;20.80;13.85;;;-0.20;99.90;;;;;;5102381;28;20336;-87
2023/03/01 00:41:23;;;;;;;23.75;15.23;;;-0.10;99.90;;;;;;5075839;28;20048;-87
2023/03/01 00:43:50;;;;;;;25.08;15.40;;;-0.30;99.90;;;;;;5116382;28;20050;-87
2023/03/01 00:46:19;;;;;;;21.13;15.40;;;0.30;99.90;;;;;;5071359;28;20044;-87
2023/03/01 00:48:45;;;;;;;23.42;15.00;;;-0.30;99.90;;;;;;5083774;28;20503;-87
2023/03/01 00:51:17;;;;;;;24.52;15.98;;;-0.20;99.90;;;;;;5066350;28;20036;-87
2023/03/01 00:53:43;;;;;;;25.83;16.90;;;-0.30;99.90;;;;;;5099085;28;20089;-87
2023/03/01 00:56:11;;;;;;;24.35;16.52;;;-0.30;99.90;;;;;;5112731;28;20042;-87
2023/03/01 00:58:38;;;;;;;21.42;15.48;;;0.50;99.90;;;;;;5085137;28;20098;-86
2023/03/01 01:01:18;;;;;;;25.73;15.73;;;-0.30;99.90;;;;;;5119159;28;20055;-88
2023/03/01 01:04:06;;;;;;;28.10;17.10;;;-0.30;99.90;;;;;;5101925;28;20103;-87
2023/03/01 01:06:35;;;;;;;28.98;16.25;;;0.10;99.90;;;;;;5102181;28;20052;-87
2023/03/01 01:09:02;;;;;;;27.55;16.95;;;-0.40;99.90;;;;;;5112201;28;20040;-88
2023/03/01 01:11:29;;;;;;;26.25;17.25;;;1.50;99.90;;;;;;5101826;28;20035;-87
2023/03/01 01:13:56;;;;;;;23.83;17.35;;;-0.40;99.90;;;;;;5084587;28;20039;-87
2023/03/01 01:16:24;;;;;;;24.40;16.65;;;-0.50;99.90;;;;;;5085642;28;20580;-86
2023/03/01 01:18:50;;;;;;;27.60;17.70;;;-0.50;99.90;;;;;;5084098;28;20388;-87
2023/03/01 01:21:19;;;;;;;24.27;16.90;;;-0.50;99.90;;;;;;5092128;28;20051;-88
2023/03/01 01:23:45;;;;;;;23.83;17.55;;;0.60;99.90;;;;;;5083044;28;20031;-86
2023/03/01 01:26:14;;;;;;;24.02;16.80;;;-0.60;99.90;;;;;;5112359;28;20054;-87
2023/03/01 01:28:40;;;;;;;25.40;17.20;;;-0.60;99.90;;;;;;5085395;28;20108;-86
2023/03/01 01:31:06;;;;;;;26.60;18.30;;;0.50;99.90;;;;;;5092765;28;20039;-87
2023/03/01 01:33:32;;;;;;;27.25;17.90;;;0.50;99.90;;;;;;5090257;28;20061;-86
2023/03/01 01:35:58;;;;;;;24.15;16.45;;;-0.60;99.90;;;;;;5089059;28;20051;-87
2023/03/01 01:38:24;;;;;;;25.50;16.33;;;-0.70;99.90;;;;;;5091353;28;20064;-86
2023/03/01 01:40:50;;;;;;;26.08;17.60;;;0.00;99.90;;;;;;5064724;28;20044;-86
2023/03/01 01:43:33;;;;;;;24.08;16.67;;;-0.20;99.90;;;;;;5101199;28;20103;-86
2023/03/01 01:46:07;;;;;;;25.55;17.75;;;-0.80;99.90;;;;;;5116032;28;20052;-87
2023/03/01 01:48:46;;;;;;;27.77;17.63;;;0.40;99.90;;;;;;5091349;28;20039;-88
2023/03/01 01:51:19;;;;;;;27.10;17.50;;;-0.20;99.90;;;;;;5085373;28;20039;-87
2023/03/01 01:53:50;;;;;;;24.35;17.13;;;-0.80;99.90;;;;;;5101570;28;20028;-87
2023/03/01 01:56:17;;;;;;;25.13;17.05;;;-0.80;99.90;;;;;;5085018;28;20414;-89
2023/03/01 01:58:44;;;;;;;27.05;17.65;;;-0.80;99.90;;;;;;5068550;28;20036;-86
2023/03/01 02:01:11;;;;;;;25.50;17.23;;;-0.90;99.90;;;;;;5083499;28;20044;-87
2023/03/01 02:03:42;;;;;;;26.83;18.38;;;0.80;99.90;;;;;;5084998;28;20051;-87
2023/03/01 02:06:39;;;;;;;28.38;17.83;;;0.30;99.90;;;;;;5084413;28;20071;-87
2023/03/01 02:09:11;;;;;;;27.83;18.40;;;-0.60;99.90;;;;;;5106159;28;20251;-88
2023/03/01 02:11:37;;;;;;;29.85;17.88;;;0.00;99.90;;;;;;5119103;28;20050;-86
2023/03/01 02:14:03;;;;;;;28.60;18.40;;;-1.00;99.90;;;;;;5066883;28;20121;-86
2023/03/01 02:16:30;;;;;;;27.95;17.38;;;-1.00;99.90;;;;;;5084516;28;20078;-87
2023/03/01 02:18:57;;;;;;;28.77;18.05;;;-1.00;99.90;;;;;;5100689;28;20043;-87
2023/03/01 02:21:49;;;;;;;27.75;17.95;;;-0.50;99.90;;;;;;5119012;28;20040;-87
2023/03/01 02:24:34;;;;;;;25.75;18.15;;;-1.00;99.90;;;;;;5119110;28;20126;-85
2023/03/01 02:27:00;;;;;;;28.27;18.05;;;-1.00;99.90;;;;;;5083815;28;20047;-87
2023/03/01 02:29:28;;;;;;;34.75;20.27;;;-1.00;99.90;;;;;;5117819;28;20036;-87
2023/03/01 02:31:56;;;;;;;38.25;20.80;;;-1.00;99.90;;;;;;5100406;28;20036;-87
2023/03/01 02:34:25;;;;;;;39.85;20.35;;;-1.00;99.90;;;;;;5084502;28;20061;-87
2023/03/01 02:37:04;;;;;;;63.35;22.17;;;-1.00;99.90;;;;;;5084499;28;20434;-87
2023/03/01 02:39:57;;;;;;;123.47;22.15;;;-0.90;99.90;;;;;;5084112;28;20077;-86
2023/03/01 02:42:28;;;;;;;89.45;22.02;;;-0.70;99.90;;;;;;5104059;27;20047;-86
2023/03/01 02:44:54;;;;;;;126.15;21.45;;;0.10;99.90;;;;;;5108945;27;20130;-93
2023/03/01 02:47:19;;;;;;;164.10;23.58;;;-0.70;99.90;;;;;;5076992;27;20088;-91
2023/03/01 02:49:45;;;;;;;226.15;22.65;;;-0.90;99.90;;;;;;5077102;27;20039;-94
2023/03/01 02:52:41;;;;;;;96.03;18.67;;;-0.90;99.90;;;;;;5111809;27;20527;-95
2023/03/01 02:55:16;;;;;;;78.93;20.40;;;-0.90;99.90;;;;;;5097552;28;20055;-96
2023/03/01 02:57:44;;;;;;;52.03;19.70;;;-1.00;99.90;;;;;;5088935;28;20107;-93
2023/03/01 03:00:21;;;;;;;83.47;20.67;;;-1.00;99.90;;;;;;5088069;28;20043;-95
2023/03/01 03:02:49;;;;;;;57.88;19.40;;;-1.00;99.90;;;;;;5107095;28;20044;-92
2023/03/01 03:05:18;;;;;;;81.10;20.70;;;-1.00;99.90;;;;;;5104875;27;20044;-94
2023/03/01 03:07:45;;;;;;;62.20;20.42;;;0.00;99.90;;;;;;5089146;28;20048;-95
2023/03/01 03:10:21;;;;;;;77.30;20.25;;;-1.10;99.90;;;;;;5088808;28;20042;-93
2023/03/01 03:13:16;;;;;;;53.78;20.85;;;-1.10;99.90;;;;;;5090307;28;20134;-92
2023/03/01 03:15:43;;;;;;;34.50;19.20;;;-1.10;99.90;;;;;;5061686;28;20043;-93
2023/03/01 03:18:13;;;;;;;38.42;17.92;;;-1.20;99.90;;;;;;5090351;28;20035;-92
2023/03/01 03:20:40;;;;;;;46.30;19.85;;;-1.10;99.90;;;;;;5125775;28;20046;-93
2023/03/01 03:23:06;;;;;;;37.88;18.13;;;0.70;99.90;;;;;;5100662;28;20043;-90
2023/03/01 03:25:37;;;;;;;29.27;18.27;;;-1.30;99.90;;;;;;5083372;28;20047;-92
2023/03/01 03:28:09;;;;;;;39.08;19.00;;;-1.00;99.90;;;;;;5110000;28;20042;-93
2023/03/01 03:30:38;;;;;;;33.83;18.55;;;-1.30;99.90;;;;;;5082598;28;20047;-93
2023/03/01 03:33:06;;;;;;;34.70;18.80;;;-1.30;99.90;;;;;;5085325;28;20073;-93
2023/03/01 03:35:42;;;;;;;26.50;16.65;;;-1.40;99.90;;;;;;5106577;28;20050;-93
2023/03/01 03:38:18;;;;;;;27.02;18.55;;;-1.50;99.90;;;;;;5109659;28;20115;-92
2023/03/01 03:40:50;;;;;;;25.23;18.00;;;-1.50;99.90;;;;;;5088006;28;20071;-92
2023/03/01 03:43:22;;;;;;;32.15;18.17;;;-1.50;99.90;;;;;;5084213;28;20040;-94
2023/03/01 03:45:49;;;;;;;37.78;17.95;;;-1.60;99.90;;;;;;5089569;28;20042;-94
2023/03/01 03:48:16;;;;;;;33.70;17.67;;;-1.70;99.90;;;;;;5079950;28;20028;-91
2023/03/01 03:50:41;;;;;;;38.78;17.80;;;-1.80;99.90;;;;;;5084894;28;20038;-93
2023/03/01 03:53:10;;;;;;;37.08;17.70;;;0.20;99.90;;;;;;5088288;28;20122;-92
2023/03/01 03:55:38;;;;;;;37.83;17.23;;;-1.10;99.90;;;;;;5119102;28;20028;-92
2023/03/01 03:58:09;;;;;;;34.58;18.52;;;-0.20;99.90;;;;;;5075846;28;20499;-93
2023/03/01 04:00:36;;;;;;;25.65;17.40;;;-0.40;99.90;;;;;;5076372;28;20094;-92
2023/03/01 04:03:03;;;;;;;53.40;16.58;;;-1.90;99.90;;;;;;5088334;28;20058;-93
2023/03/01 04:05:29;;;;;;;37.33;17.10;;;-1.90;99.90;;;;;;5054410;28;20031;-93
2023/03/01 04:08:02;;;;;;;48.95;16.58;;;0.00;99.90;;;;;;5120912;28;20035;-94
2023/03/01 04:10:33;;;;;;;32.83;16.52;;;-1.70;99.90;;;;;;5061640;28;20101;-94
2023/03/01 04:12:59;;;;;;;33.30;16.08;;;-1.90;99.90;;;;;;5074206;28;20036;-93
2023/03/01 04:15:25;;;;;;;35.63;15.60;;;-2.00;99.90;;;;;;5072716;28;20189;-93
2023/03/01 04:17:53;;;;;;;35.88;16.15;;;-1.90;99.90;;;;;;5070472;28;20104;-93
2023/03/01 04:20:25;;;;;;;39.30;16.30;;;-2.10;99.90;;;;;;5088524;28;20042;-91
2023/03/01 04:23:15;;;;;;;37.00;16.42;;;-2.20;99.90;;;;;;5086959;28;20040;-95
2023/03/01 04:25:57;;;;;;;75.15;18.27;;;-2.20;99.90;;;;;;5088234;28;20042;-92
2023/03/01 04:28:29;;;;;;;56.15;17.08;;;-2.30;99.90;;;;;;5088567;28;20071;-92
2023/03/01 04:30:57;;;;;;;90.90;17.65;;;-2.30;99.90;;;;;;5084222;28;20052;-95
2023/03/01 04:33:24;;;;;;;102.30;18.00;;;-2.40;99.90;;;;;;5059796;28;20156;-93
2023/03/01 04:35:50;;;;;;;137.52;19.45;;;-0.70;99.90;;;;;;5087053;28;20036;-94
2023/03/01 04:38:18;;;;;;;95.80;18.02;;;-2.50;99.90;;;;;;5071568;28;20073;-95
2023/03/01 04:40:44;;;;;;;174.38;19.95;;;-1.30;99.90;;;;;;5087420;28;20048;-92
2023/03/01 04:43:13;;;;;;;61.42;16.48;;;-1.30;99.90;;;;;;5083691;28;20032;-92
2023/03/01 04:45:38;;;;;;;84.65;17.02;;;-2.50;99.90;;;;;;5102845;28;20055;-93
2023/03/01 04:48:04;;;;;;;69.32;16.48;;;-1.20;99.90;;;;;;5102940;28;20040;-93
2023/03/01 04:50:31;;;;;;;45.05;16.23;;;-2.50;99.90;;;;;;5089555;28;20048;-93
2023/03/01 04:52:58;;;;;;;108.80;17.23;;;-2.40;99.90;;;;;;5086197;28;20096;-93
2023/03/01 04:55:28;;;;;;;28.83;16.30;;;-2.50;99.90;;;;;;5104886;28;20286;-92
2023/03/01 04:57:55;;;;;;;63.05;15.70;;;-2.50;99.90;;;;;;5103637;28;20043;-93
2023/03/01 05:00:26;;;;;;;38.70;16.00;;;-2.50;99.90;;;;;;5104836;28;20518;-92
2023/03/01 05:02:54;;;;;;;36.88;16.40;;;-2.50;99.90;;;;;;5051713;28;20036;-91
2023/03/01 05:05:40;;;;;;;23.20;15.55;;;-1.80;99.90;;;;;;5100633;28;20060;-93
2023/03/01 05:08:08;;;;;;;24.08;15.85;;;-0.50;99.90;;;;;;5060026;28;20035;-93
2023/03/01 05:10:36;;;;;;;22.67;16.15;;;-2.50;99.90;;;;;;5133488;27;20050;-93
2023/03/01 05:13:03;;;;;;;23.25;16.33;;;-2.50;99.90;;;;;;5071269;28;20081;-92
2023/03/01 05:15:31;;;;;;;22.90;16.15;;;-2.60;99.90;;;;;;5122350;28;20107;-93
2023/03/01 05:17:59;;;;;;;22.40;15.80;;;-1.90;99.90;;;;;;5104958;28;20127;-92
2023/03/01 05:20:28;;;;;;;22.40;15.75;;;-2.60;99.90;;;;;;5051540;28;20077;-94
2023/03/01 05:22:59;;;;;;;24.85;16.40;;;-2.60;99.90;;;;;;5118497;27;20051;-95
2023/03/01 05:25:32;;;;;;;23.90;15.95;;;-2.60;99.90;;;;;;5084561;28;20042;-93
2023/03/01 05:28:04;;;;;;;22.48;15.73;;;-2.70;99.90;;;;;;5104963;28;20509;-94
2023/03/01 05:30:33;;;;;;;22.70;16.10;;;-2.40;99.90;;;;;;5103652;28;20065;-93
2023/03/01 05:33:00;;;;;;;20.23;14.50;;;-2.80;99.90;;;;;;5114831;28;20040;-94
2023/03/01 05:35:26;;;;;;;20.67;14.88;;;-2.80;99.90;;;;;;5085837;28;20042;-95
2023/03/01 05:37:53;;;;;;;19.88;14.52;;;-1.50;99.90;;;;;;5121687;28;20058;-93
2023/03/01 05:40:21;;;;;;;18.73;14.40;;;-3.00;99.90;;;;;;5086296;28;20077;-95
2023/03/01 05:42:55;;;;;;;18.75;14.13;;;-1.20;99.90;;;;;;5115193;28;20032;-94
2023/03/01 05:45:22;;;;;;;19.50;13.80;;;-3.10;99.90;;;;;;5070691;28;20043;-94
2023/03/01 05:47:49;;;;;;;23.08;15.05;;;-2.10;99.90;;;;;;5086093;28;20036;-94
2023/03/01 05:50:25;;;;;;;22.40;14.63;;;-3.00;99.90;;;;;;5069562;28;20050;-93
2023/03/01 05:52:56;;;;;;;20.55;14.25;;;-1.10;99.90;;;;;;5084935;28;20099;-94
2023/03/01 05:55:23;;;;;;;19.50;13.68;;;-1.60;99.90;;;;;;5120954;28;20040;-93
2023/03/01 05:57:49;;;;;;;20.98;14.55;;;-3.10;99.90;;;;;;5069316;28;20036;-92
2023/03/01 06:00:18;;;;;;;19.00;13.25;;;-3.10;99.90;;;;;;5050450;28;20043;-93
2023/03/01 06:02:44;;;;;;;18.65;13.63;;;-3.10;99.90;;;;;;5104253;28;20092;-94
2023/03/01 06:05:11;;;;;;;21.27;14.25;;;-2.30;99.90;;;;;;5087001;28;20077;-94
2023/03/01 06:07:37;;;;;;;19.27;13.60;;;-1.50;99.90;;;;;;5084237;28;20048;-94
2023/03/01 06:10:04;;;;;;;19.85;13.63;;;-3.10;99.90;;;;;;5075849;28;20104;-93
2023/03/01 06:12:38;;;;;;;17.13;13.00;;;-3.10;99.90;;;;;;5058767;28;20137;-93
2023/03/01 06:15:05;;;;;;;18.27;13.77;;;-2.10;99.90;;;;;;5101083;28;20512;-94
2023/03/01 06:17:37;;;;;;;19.70;13.57;;;-3.10;99.90;;;;;;5105986;28;20494;-94
2023/03/01 06:20:09;;;;;;;19.52;13.55;;;-3.10;99.90;;;;;;5121464;27;20047;-93
2023/03/01 06:22:34;;;;;;;18.35;13.70;;;-3.10;99.90;;;;;;5097381;28;20039;-93
2023/03/01 06:25:00;;;;;;;20.15;13.63;;;-2.70;99.90;;;;;;5085867;28;20043;-95
2023/03/01 06:27:26;;;;;;;19.08;13.75;;;-3.10;99.90;;;;;;5079023;28;20050;-94
2023/03/01 06:29:52;;;;;;;19.60;13.40;;;-2.40;99.90;;;;;;5090445;27;20157;-93
2023/03/01 06:32:18;;;;;;;18.13;13.57;;;-2.90;99.90;;;;;;5071609;27;20055;-93
2023/03/01 06:34:44;;;;;;;17.90;13.52;;;-2.00;99.90;;;;;;5086619;28;20042;-95
2023/03/01 06:37:10;;;;;;;21.75;14.63;;;-2.70;99.90;;;;;;5058446;28;20039;-94
2023/03/01 06:39:35;;;;;;;20.15;14.48;;;-3.20;99.90;;;;;;5089872;28;20099;-94
2023/03/01 06:42:01;;;;;;;20.90;14.30;;;-3.40;99.90;;;;;;5057648;28;20044;-94
2023/03/01 06:44:27;;;;;;;21.17;14.32;;;-3.20;99.90;;;;;;5057120;27;20047;-93
2023/03/01 06:46:53;;;;;;;23.05;15.27;;;-3.20;99.90;;;;;;5071028;28;20118;-94
2023/03/01 06:49:19;;;;;;;22.45;15.13;;;-2.40;99.90;;;;;;5068577;28;20041;-92
2023/03/01 06:51:46;;;;;;;21.30;14.75;;;-1.90;99.90;;;;;;5086297;28;20070;-94
2023/03/01 06:54:12;;;;;;;21.67;15.05;;;-3.20;99.90;;;;;;5091340;28;20059;-93
2023/03/01 06:56:38;;;;;;;22.25;16.00;;;-2.00;99.90;;;;;;5092812;28;20047;-93
2023/03/01 06:59:04;;;;;;;23.33;16.45;;;-3.10;99.90;;;;;;5089871;28;20043;-92
2023/03/01 07:01:30;;;;;;;23.02;16.02;;;-3.10;99.90;;;;;;5098735;28;20074;-93
2023/03/01 07:03:57;;;;;;;22.88;16.23;;;-3.10;99.90;;;;;;5092010;28;20040;-92
2023/03/01 07:06:23;;;;;;;24.02;15.90;;;-1.70;99.90;;;;;;5090393;28;20035;-94
2023/03/01 07:08:49;;;;;;;24.30;16.67;;;-3.00;99.90;;;;;;5074927;28;20036;-95
2023/03/01 07:11:15;;;;;;;23.17;15.88;;;-2.80;99.90;;;;;;5075506;28;20046;-94
2023/03/01 07:13:41;;;;;;;26.58;16.58;;;-2.90;99.90;;;;;;5070451;28;20040;-93
2023/03/01 07:16:08;;;;;;;23.05;16.40;;;-1.20;99.90;;;;;;5099973;28;20063;-95
2023/03/01 07:18:33;;;;;;;27.67;17.02;;;-2.30;99.90;;;;;;5088058;28;20043;-94
2023/03/01 07:21:08;;;;;;;28.55;18.70;;;-2.70;99.90;;;;;;5098700;28;20032;-94
2023/03/01 07:23:35;;;;;;;30.75;20.48;;;-2.60;99.90;;;;;;5098113;28;20067;-94
2023/03/01 07:26:00;;;;;;;23.33;17.63;;;-2.60;99.90;;;;;;5082445;27;20031;-94
2023/03/01 07:28:27;;;;;;;25.70;18.85;;;-2.50;99.90;;;;;;5085754;28;20058;-93
2023/03/01 07:30:53;;;;;;;32.35;21.30;;;-2.40;99.90;;;;;;5112988;28;20148;-93
2023/03/01 07:33:19;;;;;;;25.65;18.55;;;-2.40;99.90;;;;;;5108043;28;20056;-94
2023/03/01 07:35:44;;;;;;;26.95;18.63;;;-1.20;99.90;;;;;;5100898;27;20132;-92
2023/03/01 07:38:10;;;;;;;28.30;18.13;;;-1.30;99.90;;;;;;5104144;27;20035;-93
2023/03/01 07:40:36;;;;;;;31.88;18.85;;;-2.70;99.90;;;;;;5070612;27;20036;-94
2023/03/01 07:43:02;;;;;;;27.90;18.13;;;-1.00;99.90;;;;;;5083855;28;20348;-94
2023/03/01 07:45:28;;;;;;;28.65;19.55;;;-0.60;99.90;;;;;;5067588;28;20066;-92
2023/03/01 07:47:55;;;;;;;30.23;18.42;;;-1.80;99.90;;;;;;5101118;28;20025;-94
2023/03/01 07:50:22;;;;;;;38.08;20.90;;;0.20;99.90;;;;;;5128325;28;20113;-93
2023/03/01 07:52:49;;;;;;;32.92;19.33;;;-1.60;99.90;;;;;;5098346;28;20088;-93
2023/03/01 07:55:16;;;;;;;34.85;21.08;;;-0.60;99.90;;;;;;5111558;28;20055;-94
2023/03/01 07:57:47;;;;;;;36.63;20.52;;;-1.30;99.90;;;;;;5119289;28;20108;-93
2023/03/01 08:00:16;;;;;;;35.60;21.05;;;-0.80;99.90;;;;;;5123092;28;20061;-94
2023/03/01 08:02:42;;;;;;;31.90;20.80;;;-1.20;99.90;;;;;;5102297;28;20050;-94
2023/03/01 08:05:10;;;;;;;34.45;22.42;;;0.60;99.90;;;;;;5108626;28;20083;-95
2023/03/01 08:07:35;;;;;;;36.47;22.88;;;-1.00;99.90;;;;;;5066482;28;20044;-93
2023/03/01 08:10:02;;;;;;;37.65;23.48;;;0.10;99.90;;;;;;5082129;28;20151;-94
2023/03/01 08:12:28;;;;;;;34.42;22.88;;;0.20;99.90;;;;;;5041952;28;20040;-95
2023/03/01 08:14:54;;;;;;;37.03;23.05;;;-0.20;99.90;;;;;;5051495;28;20052;-95
2023/03/01 08:17:20;;;;;;;39.72;24.13;;;-0.60;99.90;;;;;;5106081;28;20044;-94
2023/03/01 08:19:47;;;;;;;37.78;23.77;;;-0.50;99.90;;;;;;5087154;28;20089;-94
2023/03/01 08:22:16;;;;;;;41.53;24.35;;;0.50;99.90;;;;;;5109462;27;20076;-95
2023/03/01 08:24:42;;;;;;;38.17;23.65;;;0.40;99.90;;;;;;5075723;27;20051;-94
2023/03/01 08:27:09;;;;;;;37.88;23.13;;;1.20;99.90;;;;;;5073677;27;20039;-94
2023/03/01 08:29:34;;;;;;;35.15;23.13;;;-0.30;99.90;;;;;;5093039;27;20062;-95
2023/03/01 08:32:00;;;;;;;37.85;23.27;;;1.50;99.90;;;;;;5086388;27;20046;-93
2023/03/01 08:34:27;;;;;;;37.22;24.13;;;-0.10;99.90;;;;;;5088801;28;20044;-94
2023/03/01 08:36:53;;;;;;;36.45;22.77;;;0.00;99.90;;;;;;5087327;28;21671;-94
2023/03/01 08:39:28;;;;;;;35.22;22.60;;;1.40;99.90;;;;;;5067612;28;20044;-95
2023/03/01 08:41:55;;;;;;;35.75;22.25;;;1.70;99.90;;;;;;5087288;28;20056;-94
2023/03/01 08:44:21;;;;;;;33.78;21.95;;;0.10;99.90;;;;;;5091533;28;20044;-94
2023/03/01 08:46:47;;;;;;;37.88;23.80;;;1.50;99.90;;;;;;5108489;27;20068;-94
2023/03/01 08:49:16;;;;;;;37.17;23.70;;;0.30;99.90;;;;;;5083490;28;20036;-94
2023/03/01 08:51:43;;;;;;;35.10;22.05;;;1.10;99.90;;;;;;5100376;27;20043;-95
2023/03/01 08:54:14;;;;;;;33.28;21.58;;;0.40;99.90;;;;;;5067573;28;20036;-94
2023/03/01 08:56:41;;;;;;;35.60;21.52;;;1.10;99.90;;;;;;5102752;28;20035;-95
2023/03/01 08:59:07;;;;;;;34.22;21.45;;;1.10;99.90;;;;;;5077195;28;20066;-94
2023/03/01 09:01:33;;;;;;;34.83;21.33;;;0.70;99.90;;;;;;5068050;28;20053;-96
2023/03/01 09:03:59;;;;;;;28.27;19.35;;;1.70;99.90;;;;;;5086059;28;20103;-95
2023/03/01 09:06:25;;;;;;;31.65;19.55;;;1.00;99.90;;;;;;5118979;27;20039;-96
2023/03/01 09:08:51;;;;;;;31.45;19.67;;;1.10;99.90;;;;;;5077093;27;20040;-95
2023/03/01 09:11:20;;;;;;;25.83;17.63;;;1.40;99.90;;;;;;5060392;27;20035;-95
2023/03/01 09:13:48;;;;;;;26.42;17.48;;;1.30;99.90;;;;;;5093894;28;20557;-95
2023/03/01 09:16:17;;;;;;;27.95;17.58;;;1.40;99.90;;;;;;5082149;28;20044;-95
2023/03/01 09:18:43;;;;;;;24.63;16.15;;;1.80;99.90;;;;;;5086390;27;20027;-96
2023/03/01 09:21:13;;;;;;;26.77;17.48;;;1.50;99.90;;;;;;5069903;28;20127;-96
2023/03/01 09:23:42;;;;;;;23.35;15.95;;;1.60;99.90;;;;;;5083230;28;20036;-95
2023/03/01 09:26:16;;;;;;;22.83;15.18;;;1.70;99.90;;;;;;5071394;28;20031;-96
2023/03/01 09:28:42;;;;;;;24.42;15.68;;;3.10;99.90;;;;;;5081727;28;20123;-96
2023/03/01 09:31:08;;;;;;;19.48;13.02;;;2.40;99.90;;;;;;5086668;28;20058;-95
2023/03/01 09:33:34;;;;;;;20.17;13.52;;;2.80;99.90;;;;;;5098782;28;20031;-96
2023/03/01 09:36:11;;;;;;;22.27;13.52;;;2.30;99.90;;;;;;5103219;28;20043;-96
2023/03/01 09:38:37;;;;;;;20.23;14.07;;;2.60;99.90;;;;;;5115635;28;20292;-95
2023/03/01 09:41:15;;;;;;;22.05;13.80;;;3.20;99.90;;;;;;5104423;28;20036;-95
2023/03/01 09:43:46;;;;;;;20.67;13.85;;;4.00;99.90;;;;;;5122115;28;20036;-95
2023/03/01 09:46:18;;;;;;;16.90;12.30;;;4.90;99.90;;;;;;5083050;28;20036;-95
2023/03/01 09:49:27;;;;;;;15.57;12.45;;;5.60;99.90;;;;;;5080237;28;20526;-96
2023/03/01 09:52:03;;;;;;;16.35;11.10;;;6.30;99.90;;;;;;5065314;28;20056;-96
2023/03/01 09:54:29;;;;;;;16.70;10.52;;;6.80;99.90;;;;;;5101216;27;20039;-96
2023/03/01 09:57:06;;;;;;;13.80;9.70;;;7.30;99.90;;;;;;5087184;28;20036;-96
2023/03/01 09:59:50;;;;;;;12.35;9.38;;;7.70;99.90;;;;;;5087113;28;20042;-96
2023/03/01 10:02:38;;;;;;;11.07;7.63;;;8.10;99.90;;;;;;5103901;28;20044;-94
2023/03/01 10:05:36;;;;;;;12.60;7.80;;;8.60;99.90;;;;;;5109621;28;20043;-96
2023/03/01 10:08:16;;;;;;;7.95;5.45;;;8.80;99.90;;;;;;5087051;28;20048;-95
2023/03/01 10:10:45;;;;;;;7.80;4.75;;;8.90;99.90;;;;;;5077519;28;20069;-96
2023/03/01 10:13:16;;;;;;;7.40;4.53;;;9.10;99.90;;;;;;5108341;28;20428;-96
2023/03/01 10:16:06;;;;;;;7.13;5.38;;;9.30;99.90;;;;;;5122791;27;20032;-96
2023/03/01 10:18:36;;;;;;;5.82;4.65;;;9.30;99.20;;;;;;5082584;28;20058;-96
2023/03/01 10:21:18;;;;;;;6.47;4.63;;;9.20;98.50;;;;;;5090940;28;20092;-96
2023/03/01 10:23:45;;;;;;;9.65;5.55;;;9.20;97.40;;;;;;5102677;27;20048;-96
2023/03/01 10:26:32;;;;;;;8.75;6.05;;;9.10;97.40;;;;;;5101111;28;20077;-95
2023/03/01 10:29:07;;;;;;;6.57;5.18;;;9.00;98.10;;;;;;5123881;28;20074;-96
2023/03/01 10:31:39;;;;;;;8.10;5.20;;;8.90;99.00;;;;;;5107131;28;20114;-96
2023/03/01 10:34:10;;;;;;;7.60;4.88;;;9.20;98.90;;;;;;5120506;28;20039;-96
2023/03/01 10:36:39;;;;;;;6.50;4.70;;;9.00;98.20;;;;;;5090924;27;20122;-96
2023/03/01 10:39:13;;;;;;;6.97;5.18;;;8.50;97.30;;;;;;5083221;28;20059;-96
2023/03/01 10:42:15;;;;;;;9.20;4.63;;;8.30;97.90;;;;;;5111200;27;20101;-96
2023/03/01 10:44:48;;;;;;;7.53;4.72;;;8.50;98.50;;;;;;5098998;28;20051;-96
2023/03/01 10:47:26;;;;;;;6.82;4.50;;;9.10;99.10;;;;;;5087152;27;20048;-96
2023/03/01 10:50:04;;;;;;;6.78;4.15;;;9.30;98.00;;;;;;5092731;28;20081;-96
2023/03/01 10:52:39;;;;;;;8.75;4.93;;;9.40;96.90;;;;;;5091234;27;20042;-96
2023/03/01 10:55:35;;;;;;;6.10;4.38;;;9.60;96.70;;;;;;5095628;27;20554;-95
2023/03/01 10:58:22;;;;;;;9.18;4.45;;;9.50;95.80;;;;;;5138216;27;20043;-94
2023/03/01 11:01:03;;;;;;;5.35;4.03;;;9.60;96.80;;;;;;5090697;28;20048;-96
2023/03/01 11:03:35;;;;;;;6.00;4.05;;;9.60;95.60;;;;;;5090011;28;20044;-95
2023/03/01 11:06:21;;;;;;;6.82;4.30;;;9.50;96.20;;;;;;5082409;28;20036;-96
2023/03/01 11:08:50;;;;;;;7.03;4.38;;;9.10;94.40;;;;;;5093702;28;20567;-94
2023/03/01 11:11:42;;;;;;;7.75;4.30;;;8.70;96.10;;;;;;5094427;28;20048;-96
2023/03/01 11:14:15;;;;;;;6.72;4.63;;;8.50;96.20;;;;;;5095387;28;20059;-96
2023/03/01 11:16:43;;;;;;;6.60;3.78;;;8.20;96.10;;;;;;5107237;28;20044;-96
2023/03/01 11:19:10;;;;;;;8.10;3.97;;;7.90;96.80;;;;;;5090322;28;20073;-96
2023/03/01 11:22:24;;;;;;;6.72;4.57;;;9.00;96.60;;;;;;5098344;27;20113;-95
2023/03/01 11:24:53;;;;;;;5.85;4.30;;;9.60;93.60;;;;;;5125355;27;20097;-96
2023/03/01 11:27:32;;;;;;;7.68;5.30;;;10.00;95.10;;;;;;5083166;27;20047;-96
2023/03/01 11:30:13;;;;;;;10.52;5.13;;;10.10;94.20;;;;;;5093261;28;20080;-96
2023/03/01 11:32:45;;;;;;;6.72;4.82;;;9.70;93.80;;;;;;5101012;27;20036;-95
2023/03/01 11:35:20;;;;;;;7.85;5.68;;;9.50;93.30;;;;;;5081873;28;20105;-94
2023/03/01 11:37:59;;;;;;;8.38;5.63;;;9.20;93.30;;;;;;5074036;28;20076;-95
2023/03/01 11:40:40;;;;;;;8.85;4.97;;;9.10;93.70;;;;;;5096327;27;20054;-96
2023/03/01 11:43:30;;;;;;;7.03;4.95;;;9.20;94.30;;;;;;5094323;27;20051;-96
2023/03/01 11:46:29;;;;;;;7.30;5.38;;;9.10;94.70;;;;;;5086241;28;20348;-96
2023/03/01 11:49:47;;;;;;;10.18;5.20;;;9.00;95.10;;;;;;5090616;27;20046;-95
2023/03/01 11:52:34;;;;;;;6.80;5.13;;;9.10;94.30;;;;;;5124683;27;20047;-95
2023/03/01 11:55:27;;;;;;;7.15;5.20;;;9.30;94.50;;;;;;5089974;27;20035;-95
2023/03/01 11:58:13;;;;;;;7.35;5.60;;;9.70;94.30;;;;;;5082253;28;20062;-95
2023/03/01 12:00:57;;;;;;;7.53;5.30;;;10.00;93.70;;;;;;5089948;28;20115;-96
2023/03/01 12:03:30;;;;;;;10.27;5.82;;;10.50;94.30;;;;;;5083025;28;20035;-96
2023/03/01 12:06:23;;;;;;;8.35;6.32;;;10.70;92.20;;;;;;5092684;27;20095;-96
2023/03/01 12:08:55;;;;;;;8.73;5.78;;;10.50;92.10;;;;;;5079714;27;20039;-96
2023/03/01 12:11:52;;;;;;;9.27;6.60;;;10.20;92.70;;;;;;5099144;28;20046;-95
2023/03/01 12:14:17;;;;;;;;;;;10.10;92.80;;;;;;5129821;28;20031;-96
2023/03/01 12:17:05;;;;;;;6.97;5.73;;;10.50;93.10;;;;;;5125920;28;19919;-93
2023/03/01 12:20:13;;;;;;;7.55;5.20;;;10.90;91.80;;;;;;5111688;27;20036;-94
2023/03/01 12:22:45;;;;;;;8.68;6.25;;;10.90;90.80;;;;;;5095590;28;20087;-95
2023/03/01 12:25:21;;;;;;;8.77;6.18;;;10.60;91.10;;;;;;5112257;28;20050;-95
2023/03/01 12:27:53;;;;;;;10.05;6.32;;;10.30;90.70;;;;;;5116435;27;20050;-95
2023/03/01 12:30:49;;;;;;;7.22;5.25;;;10.00;91.60;;;;;;5104172;28;20050;-96
2023/03/01 12:33:45;;;;;;;8.30;5.70;;;9.90;91.60;;;;;;5096057;27;20054;-96
2023/03/01 12:36:19;;;;;;;9.30;5.68;;;9.70;91.60;;;;;;5085924;28;20047;-95
2023/03/01 12:39:30;;;;;;;10.07;5.80;;;9.80;92.80;;;;;;5108492;28;20059;-96
2023/03/01 12:42:11;;;;;;;7.53;5.28;;;10.30;91.20;;;;;;5076903;28;20036;-96
2023/03/01 12:45:12;;;;;;;6.43;5.13;;;10.40;91.10;;;;;;5108435;27;20035;-96
2023/03/01 12:47:54;;;;;;;7.88;4.90;;;10.30;88.80;;;;;;5084277;28;20047;-94
2023/03/01 12:50:51;;;;;;;9.13;5.63;;;10.30;90.10;;;;;;5112907;28;20059;-94
2023/03/01 12:53:22;;;;;;;;;;;10.30;90.30;;;;;;5098267;28;20084;-95
2023/03/01 12:55:50;;;;;;;8.00;5.50;;;10.40;89.10;;;;;;5094471;28;19920;-96
2023/03/01 12:58:25;;;;;;;8.20;5.78;;;10.40;87.80;;;;;;5092911;28;20048;-95
2023/03/01 13:01:07;;;;;;;6.57;5.00;;;10.40;87.90;;;;;;5112627;28;20039;-95